Aérodrome :
LOGIN :

S'inscrire | Disclaimer

   EN    FR    IT 

 










Légende :    VFR   VFR Marginal   IFR   IFR Intensif   IFR Très Intensif
Visi : 
Plafond : 
>= 8 km
>= 3000ft
5 à 8 km
1000 à 3000 ft
1500m à 5 km
500 à 1000 ft
800 à 1500m
200 à 500 ft
< 800m
< 200 ft
Symboles :   Orages  Brouillard  Fortes neiges  Fortes précipitations  Vent > 20 kt
SIGMETs :   Divers  Orages  Givrage  Turbulence  Onde Orograph.  Cendres Volcan.







- Altitude de l'aérodrome : 423 ft
- Code IATA : PIS
- Voir les cartes d'approche


LFBI - Poitiers

DERNIER METAR :
  • 241330Z AUTO 01012KT 9999 FEW040 14/04 Q1027 NOSIG

METARs EXPIRÉS :
  • 241300Z AUTO 36010KT 330V030 9999 SCT038 14/05 Q1027 NOSIG
  • 241230Z AUTO 35012KT 9999 FEW036 14/04 Q1027 NOSIG
  • 241200Z AUTO 01008KT 310V040 9999 FEW031 13/05 Q1027 NOSIG
  • 241130Z AUTO 01008KT 310V040 9000 NSC 13/06 Q1027 NOSIG
  • 241100Z AUTO 01006KT 330V080 8000 FEW027 12/06 Q1027 NOSIG

TAF TAF LFBI
Valide du 24 à 12h jusqu'au 25 à 12h UTC


241100Z 2412/2512 03010KT CAVOK
Pas de NOTAMs connus pour ce terrain.



MET'MAP, la Météo Aéronautique d'un coup d'oeil ! - Copyright ORBIFLY Décembre 2007 - Disclaimer

ORBIFLY MET'MAP TEAM :

Programmation & Développement : Alexandra Zaïnal
Conception & Développement : Baudouin d'Aumeries
Co-Programmation & Développement : Marc-Olivier Méhu
Soutien technique & logistique : Manuel Goepfert

Contact : metmap@orbifly.com




SOURCES & CREDITS :

   NOAA